sensor_id;sensor_type;location;lat;lon;timestamp;P1;durP1;ratioP1;P2;durP2;ratioP2
74415;SDS011;62850;42.428;25.618;2023-01-09T00:01:17;25.60;;;12.43;;
74415;SDS011;62850;42.428;25.618;2023-01-09T00:03:51;30.05;;;12.63;;
74415;SDS011;62850;42.428;25.618;2023-01-09T00:06:17;27.17;;;14.15;;
74415;SDS011;62850;42.428;25.618;2023-01-09T00:08:43;30.88;;;15.68;;
74415;SDS011;62850;42.428;25.618;2023-01-09T00:11:08;35.05;;;16.73;;
74415;SDS011;62850;42.428;25.618;2023-01-09T00:13:34;28.65;;;14.63;;
74415;SDS011;62850;42.428;25.618;2023-01-09T00:16:00;23.20;;;13.02;;
74415;SDS011;62850;42.428;25.618;2023-01-09T00:18:26;29.23;;;13.75;;
74415;SDS011;62850;42.428;25.618;2023-01-09T00:20:51;22.67;;;13.20;;
74415;SDS011;62850;42.428;25.618;2023-01-09T00:23:17;28.25;;;14.63;;
74415;SDS011;62850;42.428;25.618;2023-01-09T00:25:42;26.33;;;14.38;;
74415;SDS011;62850;42.428;25.618;2023-01-09T00:28:08;20.50;;;13.18;;
74415;SDS011;62850;42.428;25.618;2023-01-09T00:30:33;29.13;;;14.70;;
74415;SDS011;62850;42.428;25.618;2023-01-09T00:32:59;26.98;;;13.65;;
74415;SDS011;62850;42.428;25.618;2023-01-09T00:35:25;26.58;;;13.95;;
74415;SDS011;62850;42.428;25.618;2023-01-09T00:37:52;28.40;;;14.25;;
74415;SDS011;62850;42.428;25.618;2023-01-09T00:40:18;25.52;;;13.82;;
74415;SDS011;62850;42.428;25.618;2023-01-09T00:42:45;27.80;;;13.50;;
74415;SDS011;62850;42.428;25.618;2023-01-09T00:45:16;27.42;;;13.93;;
74415;SDS011;62850;42.428;25.618;2023-01-09T00:47:45;23.75;;;13.02;;
74415;SDS011;62850;42.428;25.618;2023-01-09T00:50:15;23.45;;;13.13;;
74415;SDS011;62850;42.428;25.618;2023-01-09T00:52:44;23.05;;;11.88;;
74415;SDS011;62850;42.428;25.618;2023-01-09T00:55:10;21.10;;;12.02;;
74415;SDS011;62850;42.428;25.618;2023-01-09T00:57:37;24.98;;;13.32;;
74415;SDS011;62850;42.428;25.618;2023-01-09T01:00:03;29.15;;;14.50;;
74415;SDS011;62850;42.428;25.618;2023-01-09T01:02:29;24.45;;;13.95;;
74415;SDS011;62850;42.428;25.618;2023-01-09T01:04:55;27.20;;;13.85;;
74415;SDS011;62850;42.428;25.618;2023-01-09T01:07:39;27.55;;;13.07;;
74415;SDS011;62850;42.428;25.618;2023-01-09T01:10:06;22.05;;;11.52;;
74415;SDS011;62850;42.428;25.618;2023-01-09T01:12:35;22.95;;;12.70;;
74415;SDS011;62850;42.428;25.618;2023-01-09T01:15:01;24.27;;;12.60;;
74415;SDS011;62850;42.428;25.618;2023-01-09T01:17:27;23.08;;;12.20;;
74415;SDS011;62850;42.428;25.618;2023-01-09T01:19:52;22.20;;;11.35;;
74415;SDS011;62850;42.428;25.618;2023-01-09T01:22:18;20.27;;;12.35;;
74415;SDS011;62850;42.428;25.618;2023-01-09T01:24:44;23.75;;;11.35;;
74415;SDS011;62850;42.428;25.618;2023-01-09T01:27:09;23.15;;;11.80;;
74415;SDS011;62850;42.428;25.618;2023-01-09T01:29:35;24.20;;;13.18;;
74415;SDS011;62850;42.428;25.618;2023-01-09T01:32:00;21.60;;;12.52;;
74415;SDS011;62850;42.428;25.618;2023-01-09T01:34:27;21.05;;;11.45;;
74415;SDS011;62850;42.428;25.618;2023-01-09T01:36:53;21.30;;;12.70;;
74415;SDS011;62850;42.428;25.618;2023-01-09T01:39:18;23.35;;;12.02;;
74415;SDS011;62850;42.428;25.618;2023-01-09T01:41:44;28.15;;;12.63;;
74415;SDS011;62850;42.428;25.618;2023-01-09T01:47:13;24.58;;;12.98;;
74415;SDS011;62850;42.428;25.618;2023-01-09T01:49:40;27.15;;;12.38;;
74415;SDS011;62850;42.428;25.618;2023-01-09T01:52:06;28.77;;;13.05;;
74415;SDS011;62850;42.428;25.618;2023-01-09T01:54:32;23.35;;;11.95;;
74415;SDS011;62850;42.428;25.618;2023-01-09T01:56:59;24.45;;;12.07;;
74415;SDS011;62850;42.428;25.618;2023-01-09T01:59:37;22.80;;;12.10;;
74415;SDS011;62850;42.428;25.618;2023-01-09T02:02:06;25.38;;;12.23;;
74415;SDS011;62850;42.428;25.618;2023-01-09T02:04:33;25.45;;;11.07;;
74415;SDS011;62850;42.428;25.618;2023-01-09T02:07:01;24.20;;;12.10;;
74415;SDS011;62850;42.428;25.618;2023-01-09T02:09:31;25.50;;;11.93;;
74415;SDS011;62850;42.428;25.618;2023-01-09T02:11:57;19.40;;;10.02;;
74415;SDS011;62850;42.428;25.618;2023-01-09T02:14:25;22.95;;;10.98;;
74415;SDS011;62850;42.428;25.618;2023-01-09T02:30:43;21.88;;;11.32;;
74415;SDS011;62850;42.428;25.618;2023-01-09T02:43:22;22.60;;;12.13;;
74415;SDS011;62850;42.428;25.618;2023-01-09T02:45:49;20.95;;;11.73;;
74415;SDS011;62850;42.428;25.618;2023-01-09T02:48:14;21.63;;;11.57;;
74415;SDS011;62850;42.428;25.618;2023-01-09T02:50:41;21.70;;;11.93;;
74415;SDS011;62850;42.428;25.618;2023-01-09T03:09:11;21.10;;;12.57;;
74415;SDS011;62850;42.428;25.618;2023-01-09T03:11:48;23.88;;;12.07;;
74415;SDS011;62850;42.428;25.618;2023-01-09T03:14:19;25.05;;;11.98;;
74415;SDS011;62850;42.428;25.618;2023-01-09T03:16:48;20.38;;;11.57;;
74415;SDS011;62850;42.428;25.618;2023-01-09T03:19:20;20.92;;;11.70;;
74415;SDS011;62850;42.428;25.618;2023-01-09T03:21:48;21.55;;;11.40;;
74415;SDS011;62850;42.428;25.618;2023-01-09T03:24:15;23.48;;;12.10;;
74415;SDS011;62850;42.428;25.618;2023-01-09T03:26:40;21.30;;;10.95;;
74415;SDS011;62850;42.428;25.618;2023-01-09T03:29:06;20.60;;;11.68;;
74415;SDS011;62850;42.428;25.618;2023-01-09T03:31:32;22.45;;;11.60;;
74415;SDS011;62850;42.428;25.618;2023-01-09T03:33:57;24.05;;;11.27;;
74415;SDS011;62850;42.428;25.618;2023-01-09T03:36:23;20.88;;;11.20;;
74415;SDS011;62850;42.428;25.618;2023-01-09T03:38:49;18.60;;;10.85;;
74415;SDS011;62850;42.428;25.618;2023-01-09T03:41:15;25.75;;;12.32;;
74415;SDS011;62850;42.428;25.618;2023-01-09T03:43:41;21.13;;;11.45;;
74415;SDS011;62850;42.428;25.618;2023-01-09T03:46:07;24.35;;;11.88;;
74415;SDS011;62850;42.428;25.618;2023-01-09T03:48:33;23.67;;;12.23;;
74415;SDS011;62850;42.428;25.618;2023-01-09T03:50:58;22.23;;;13.55;;
74415;SDS011;62850;42.428;25.618;2023-01-09T03:53:24;26.27;;;13.45;;
74415;SDS011;62850;42.428;25.618;2023-01-09T03:55:52;26.27;;;13.73;;
74415;SDS011;62850;42.428;25.618;2023-01-09T03:58:19;23.98;;;13.75;;
74415;SDS011;62850;42.428;25.618;2023-01-09T04:00:45;26.08;;;13.68;;
74415;SDS011;62850;42.428;25.618;2023-01-09T04:03:13;28.90;;;13.50;;
74415;SDS011;62850;42.428;25.618;2023-01-09T04:05:40;22.65;;;13.82;;
74415;SDS011;62850;42.428;25.618;2023-01-09T04:08:06;24.73;;;13.38;;
74415;SDS011;62850;42.428;25.618;2023-01-09T04:10:31;31.05;;;13.25;;
74415;SDS011;62850;42.428;25.618;2023-01-09T04:12:57;23.42;;;13.23;;
74415;SDS011;62850;42.428;25.618;2023-01-09T04:15:23;23.83;;;13.95;;
74415;SDS011;62850;42.428;25.618;2023-01-09T04:17:49;25.60;;;13.75;;
74415;SDS011;62850;42.428;25.618;2023-01-09T04:20:14;24.30;;;13.93;;
74415;SDS011;62850;42.428;25.618;2023-01-09T04:22:40;25.88;;;14.02;;
74415;SDS011;62850;42.428;25.618;2023-01-09T04:25:05;24.42;;;13.07;;
74415;SDS011;62850;42.428;25.618;2023-01-09T04:27:31;28.15;;;14.23;;
74415;SDS011;62850;42.428;25.618;2023-01-09T04:29:57;24.83;;;13.13;;
74415;SDS011;62850;42.428;25.618;2023-01-09T04:32:22;27.33;;;13.35;;
74415;SDS011;62850;42.428;25.618;2023-01-09T04:34:48;23.77;;;13.00;;
74415;SDS011;62850;42.428;25.618;2023-01-09T04:37:14;25.33;;;13.55;;
74415;SDS011;62850;42.428;25.618;2023-01-09T04:39:39;23.75;;;12.95;;
74415;SDS011;62850;42.428;25.618;2023-01-09T04:42:09;28.02;;;13.52;;
74415;SDS011;62850;42.428;25.618;2023-01-09T04:44:35;22.75;;;13.65;;
74415;SDS011;62850;42.428;25.618;2023-01-09T04:47:01;28.15;;;13.98;;
74415;SDS011;62850;42.428;25.618;2023-01-09T04:49:26;23.25;;;13.10;;
74415;SDS011;62850;42.428;25.618;2023-01-09T04:51:52;23.10;;;12.80;;
74415;SDS011;62850;42.428;25.618;2023-01-09T04:54:17;20.83;;;12.57;;
74415;SDS011;62850;42.428;25.618;2023-01-09T04:56:43;23.90;;;13.20;;
74415;SDS011;62850;42.428;25.618;2023-01-09T04:59:09;25.25;;;13.48;;
74415;SDS011;62850;42.428;25.618;2023-01-09T05:01:35;22.67;;;12.38;;
74415;SDS011;62850;42.428;25.618;2023-01-09T05:04:00;23.33;;;11.98;;
74415;SDS011;62850;42.428;25.618;2023-01-09T05:06:26;26.17;;;13.85;;
74415;SDS011;62850;42.428;25.618;2023-01-09T05:08:52;22.95;;;12.85;;
74415;SDS011;62850;42.428;25.618;2023-01-09T05:11:17;22.75;;;13.02;;
74415;SDS011;62850;42.428;25.618;2023-01-09T05:13:43;21.63;;;12.52;;
74415;SDS011;62850;42.428;25.618;2023-01-09T05:16:10;23.23;;;12.75;;
74415;SDS011;62850;42.428;25.618;2023-01-09T05:18:35;27.50;;;13.65;;
74415;SDS011;62850;42.428;25.618;2023-01-09T05:21:01;24.48;;;13.25;;
74415;SDS011;62850;42.428;25.618;2023-01-09T05:23:26;23.98;;;13.27;;
74415;SDS011;62850;42.428;25.618;2023-01-09T05:25:52;23.88;;;13.20;;
74415;SDS011;62850;42.428;25.618;2023-01-09T05:28:17;22.55;;;13.15;;
74415;SDS011;62850;42.428;25.618;2023-01-09T05:30:43;27.40;;;12.82;;
74415;SDS011;62850;42.428;25.618;2023-01-09T05:33:08;23.20;;;13.10;;
74415;SDS011;62850;42.428;25.618;2023-01-09T05:35:34;27.25;;;14.50;;
74415;SDS011;62850;42.428;25.618;2023-01-09T05:37:59;27.67;;;13.35;;
74415;SDS011;62850;42.428;25.618;2023-01-09T05:40:25;29.10;;;14.27;;
74415;SDS011;62850;42.428;25.618;2023-01-09T05:42:51;29.10;;;13.73;;
74415;SDS011;62850;42.428;25.618;2023-01-09T05:45:16;29.90;;;13.80;;
74415;SDS011;62850;42.428;25.618;2023-01-09T05:47:45;25.23;;;13.80;;
74415;SDS011;62850;42.428;25.618;2023-01-09T05:50:10;23.73;;;14.55;;
74415;SDS011;62850;42.428;25.618;2023-01-09T05:52:37;29.90;;;15.57;;
74415;SDS011;62850;42.428;25.618;2023-01-09T05:55:03;31.95;;;15.30;;
74415;SDS011;62850;42.428;25.618;2023-01-09T05:57:29;29.50;;;15.77;;
74415;SDS011;62850;42.428;25.618;2023-01-09T05:59:55;38.33;;;16.50;;
74415;SDS011;62850;42.428;25.618;2023-01-09T06:02:20;27.30;;;16.33;;
74415;SDS011;62850;42.428;25.618;2023-01-09T06:04:46;30.35;;;16.20;;
74415;SDS011;62850;42.428;25.618;2023-01-09T06:07:11;34.80;;;16.55;;
74415;SDS011;62850;42.428;25.618;2023-01-09T06:09:37;29.13;;;15.52;;
74415;SDS011;62850;42.428;25.618;2023-01-09T06:12:02;31.20;;;15.50;;
74415;SDS011;62850;42.428;25.618;2023-01-09T06:14:28;30.15;;;16.88;;
74415;SDS011;62850;42.428;25.618;2023-01-09T06:16:54;31.40;;;17.80;;
74415;SDS011;62850;42.428;25.618;2023-01-09T06:19:19;36.35;;;17.15;;
74415;SDS011;62850;42.428;25.618;2023-01-09T06:21:45;37.55;;;17.60;;
74415;SDS011;62850;42.428;25.618;2023-01-09T06:24:10;37.05;;;17.10;;
74415;SDS011;62850;42.428;25.618;2023-01-09T06:26:35;29.45;;;16.73;;
74415;SDS011;62850;42.428;25.618;2023-01-09T06:29:01;35.08;;;16.33;;
74415;SDS011;62850;42.428;25.618;2023-01-09T06:31:26;35.95;;;15.48;;
74415;SDS011;62850;42.428;25.618;2023-01-09T06:33:52;34.30;;;16.35;;
74415;SDS011;62850;42.428;25.618;2023-01-09T06:36:18;33.78;;;16.88;;
74415;SDS011;62850;42.428;25.618;2023-01-09T06:38:45;35.17;;;17.52;;
74415;SDS011;62850;42.428;25.618;2023-01-09T06:41:11;50.10;;;19.23;;
74415;SDS011;62850;42.428;25.618;2023-01-09T06:43:36;35.95;;;19.35;;
74415;SDS011;62850;42.428;25.618;2023-01-09T06:46:02;42.65;;;18.88;;
74415;SDS011;62850;42.428;25.618;2023-01-09T06:48:29;41.10;;;17.88;;
74415;SDS011;62850;42.428;25.618;2023-01-09T06:50:58;35.75;;;17.33;;
74415;SDS011;62850;42.428;25.618;2023-01-09T06:53:24;34.45;;;17.10;;
74415;SDS011;62850;42.428;25.618;2023-01-09T06:55:49;34.67;;;18.83;;
74415;SDS011;62850;42.428;25.618;2023-01-09T06:58:15;36.25;;;18.63;;
74415;SDS011;62850;42.428;25.618;2023-01-09T07:00:41;40.83;;;19.85;;
74415;SDS011;62850;42.428;25.618;2023-01-09T07:03:06;37.00;;;18.67;;
74415;SDS011;62850;42.428;25.618;2023-01-09T07:05:33;38.88;;;20.65;;
74415;SDS011;62850;42.428;25.618;2023-01-09T07:08:03;46.83;;;21.25;;
74415;SDS011;62850;42.428;25.618;2023-01-09T07:10:29;48.10;;;22.02;;
74415;SDS011;62850;42.428;25.618;2023-01-09T07:12:54;49.97;;;24.65;;
74415;SDS011;62850;42.428;25.618;2023-01-09T07:15:20;48.70;;;24.63;;
74415;SDS011;62850;42.428;25.618;2023-01-09T07:17:47;64.47;;;28.15;;
74415;SDS011;62850;42.428;25.618;2023-01-09T07:20:13;53.42;;;27.25;;
74415;SDS011;62850;42.428;25.618;2023-01-09T07:22:38;53.92;;;26.13;;
74415;SDS011;62850;42.428;25.618;2023-01-09T07:25:04;45.65;;;23.48;;
74415;SDS011;62850;42.428;25.618;2023-01-09T07:27:29;43.63;;;21.65;;
74415;SDS011;62850;42.428;25.618;2023-01-09T07:29:55;46.72;;;21.75;;
74415;SDS011;62850;42.428;25.618;2023-01-09T07:32:20;42.75;;;24.00;;
74415;SDS011;62850;42.428;25.618;2023-01-09T07:34:46;46.83;;;21.90;;
74415;SDS011;62850;42.428;25.618;2023-01-09T07:37:13;41.70;;;22.70;;
74415;SDS011;62850;42.428;25.618;2023-01-09T07:39:39;44.15;;;20.95;;
74415;SDS011;62850;42.428;25.618;2023-01-09T07:42:04;42.35;;;20.48;;
74415;SDS011;62850;42.428;25.618;2023-01-09T07:44:30;42.50;;;20.10;;
74415;SDS011;62850;42.428;25.618;2023-01-09T07:46:55;43.65;;;20.08;;
74415;SDS011;62850;42.428;25.618;2023-01-09T07:49:21;34.05;;;18.88;;
74415;SDS011;62850;42.428;25.618;2023-01-09T07:51:46;38.78;;;19.42;;
74415;SDS011;62850;42.428;25.618;2023-01-09T07:54:12;38.70;;;18.67;;
74415;SDS011;62850;42.428;25.618;2023-01-09T07:56:38;37.67;;;19.30;;
74415;SDS011;62850;42.428;25.618;2023-01-09T07:59:04;38.13;;;19.85;;
74415;SDS011;62850;42.428;25.618;2023-01-09T08:01:30;37.95;;;18.95;;
74415;SDS011;62850;42.428;25.618;2023-01-09T08:03:55;44.42;;;20.27;;
74415;SDS011;62850;42.428;25.618;2023-01-09T08:06:21;37.03;;;20.90;;
74415;SDS011;62850;42.428;25.618;2023-01-09T08:08:46;36.85;;;19.02;;
74415;SDS011;62850;42.428;25.618;2023-01-09T08:11:12;42.67;;;19.45;;
74415;SDS011;62850;42.428;25.618;2023-01-09T08:13:37;31.25;;;18.17;;
74415;SDS011;62850;42.428;25.618;2023-01-09T08:16:03;40.05;;;18.25;;
74415;SDS011;62850;42.428;25.618;2023-01-09T08:18:29;33.38;;;19.15;;
74415;SDS011;62850;42.428;25.618;2023-01-09T08:20:54;37.63;;;17.45;;
74415;SDS011;62850;42.428;25.618;2023-01-09T08:23:20;35.92;;;17.50;;
74415;SDS011;62850;42.428;25.618;2023-01-09T08:25:45;39.30;;;17.88;;
74415;SDS011;62850;42.428;25.618;2023-01-09T08:28:11;32.72;;;16.77;;
74415;SDS011;62850;42.428;25.618;2023-01-09T08:30:36;42.63;;;17.80;;
74415;SDS011;62850;42.428;25.618;2023-01-09T08:33:02;35.22;;;17.48;;
74415;SDS011;62850;42.428;25.618;2023-01-09T08:35:28;38.38;;;17.60;;
74415;SDS011;62850;42.428;25.618;2023-01-09T08:37:54;39.33;;;17.70;;
74415;SDS011;62850;42.428;25.618;2023-01-09T08:40:19;39.83;;;17.33;;
74415;SDS011;62850;42.428;25.618;2023-01-09T08:42:45;34.35;;;16.30;;
74415;SDS011;62850;42.428;25.618;2023-01-09T08:45:29;42.90;;;18.30;;
74415;SDS011;62850;42.428;25.618;2023-01-09T08:48:14;36.78;;;17.33;;
74415;SDS011;62850;42.428;25.618;2023-01-09T08:50:43;39.42;;;17.23;;
74415;SDS011;62850;42.428;25.618;2023-01-09T08:53:09;37.60;;;16.13;;
74415;SDS011;62850;42.428;25.618;2023-01-09T08:55:35;37.58;;;16.25;;
74415;SDS011;62850;42.428;25.618;2023-01-09T08:58:01;39.78;;;16.27;;
74415;SDS011;62850;42.428;25.618;2023-01-09T09:00:26;38.92;;;15.93;;
74415;SDS011;62850;42.428;25.618;2023-01-09T09:02:53;37.88;;;16.88;;
74415;SDS011;62850;42.428;25.618;2023-01-09T09:05:20;39.88;;;16.38;;
74415;SDS011;62850;42.428;25.618;2023-01-09T09:07:46;40.80;;;16.58;;
74415;SDS011;62850;42.428;25.618;2023-01-09T09:10:13;36.05;;;16.15;;
74415;SDS011;62850;42.428;25.618;2023-01-09T09:12:40;37.58;;;16.40;;
74415;SDS011;62850;42.428;25.618;2023-01-09T09:15:06;42.50;;;17.33;;
74415;SDS011;62850;42.428;25.618;2023-01-09T09:17:40;40.92;;;16.45;;
74415;SDS011;62850;42.428;25.618;2023-01-09T09:20:07;46.60;;;17.65;;
74415;SDS011;62850;42.428;25.618;2023-01-09T09:22:36;38.90;;;16.88;;
74415;SDS011;62850;42.428;25.618;2023-01-09T09:25:01;38.42;;;15.60;;
74415;SDS011;62850;42.428;25.618;2023-01-09T09:27:29;41.38;;;15.95;;
74415;SDS011;62850;42.428;25.618;2023-01-09T09:29:55;37.67;;;15.73;;
74415;SDS011;62850;42.428;25.618;2023-01-09T09:32:20;39.03;;;16.88;;
74415;SDS011;62850;42.428;25.618;2023-01-09T09:34:46;44.22;;;16.85;;
74415;SDS011;62850;42.428;25.618;2023-01-09T09:37:11;56.55;;;17.27;;
74415;SDS011;62850;42.428;25.618;2023-01-09T09:39:37;38.05;;;16.65;;
74415;SDS011;62850;42.428;25.618;2023-01-09T09:50:54;38.20;;;17.05;;
74415;SDS011;62850;42.428;25.618;2023-01-09T09:56:14;39.90;;;16.65;;
74415;SDS011;62850;42.428;25.618;2023-01-09T09:58:44;39.78;;;16.27;;
74415;SDS011;62850;42.428;25.618;2023-01-09T10:01:15;38.70;;;16.38;;
74415;SDS011;62850;42.428;25.618;2023-01-09T10:03:46;41.40;;;16.35;;
74415;SDS011;62850;42.428;25.618;2023-01-09T10:08:54;42.63;;;18.02;;
74415;SDS011;62850;42.428;25.618;2023-01-09T10:14:11;43.55;;;17.38;;
74415;SDS011;62850;42.428;25.618;2023-01-09T10:30:46;42.55;;;16.83;;
74415;SDS011;62850;42.428;25.618;2023-01-09T10:36:13;46.25;;;17.77;;
74415;SDS011;62850;42.428;25.618;2023-01-09T10:39:18;48.88;;;17.60;;
74415;SDS011;62850;42.428;25.618;2023-01-09T10:41:52;49.72;;;17.55;;
74415;SDS011;62850;42.428;25.618;2023-01-09T10:44:29;48.45;;;18.17;;
74415;SDS011;62850;42.428;25.618;2023-01-09T10:47:03;48.42;;;19.10;;
74415;SDS011;62850;42.428;25.618;2023-01-09T10:49:32;45.60;;;19.08;;
74415;SDS011;62850;42.428;25.618;2023-01-09T10:54:41;52.80;;;18.65;;
74415;SDS011;62850;42.428;25.618;2023-01-09T10:57:14;44.45;;;18.65;;
74415;SDS011;62850;42.428;25.618;2023-01-09T10:59:58;39.85;;;17.52;;
74415;SDS011;62850;42.428;25.618;2023-01-09T11:04:51;43.97;;;16.65;;
74415;SDS011;62850;42.428;25.618;2023-01-09T11:07:17;41.63;;;17.92;;
74415;SDS011;62850;42.428;25.618;2023-01-09T11:12:24;45.83;;;18.60;;
74415;SDS011;62850;42.428;25.618;2023-01-09T11:14:52;43.90;;;17.30;;
74415;SDS011;62850;42.428;25.618;2023-01-09T11:17:18;48.92;;;18.60;;
74415;SDS011;62850;42.428;25.618;2023-01-09T11:20:03;64.82;;;24.92;;
74415;SDS011;62850;42.428;25.618;2023-01-09T11:22:52;73.75;;;27.45;;
74415;SDS011;62850;42.428;25.618;2023-01-09T11:25:19;68.88;;;25.90;;
74415;SDS011;62850;42.428;25.618;2023-01-09T11:30:51;50.47;;;21.00;;
74415;SDS011;62850;42.428;25.618;2023-01-09T11:33:24;45.45;;;18.73;;
74415;SDS011;62850;42.428;25.618;2023-01-09T11:35:58;73.15;;;31.63;;
74415;SDS011;62850;42.428;25.618;2023-01-09T11:38:28;69.30;;;30.65;;
74415;SDS011;62850;42.428;25.618;2023-01-09T11:41:00;75.05;;;36.53;;
74415;SDS011;62850;42.428;25.618;2023-01-09T11:45:56;56.85;;;24.98;;
74415;SDS011;62850;42.428;25.618;2023-01-09T11:48:28;54.00;;;21.15;;
74415;SDS011;62850;42.428;25.618;2023-01-09T11:50:58;49.13;;;19.73;;
74415;SDS011;62850;42.428;25.618;2023-01-09T11:53:25;46.50;;;19.05;;
74415;SDS011;62850;42.428;25.618;2023-01-09T11:58:22;56.38;;;21.02;;
74415;SDS011;62850;42.428;25.618;2023-01-09T12:06:29;43.47;;;17.25;;
74415;SDS011;62850;42.428;25.618;2023-01-09T12:09:04;47.05;;;18.02;;
74415;SDS011;62850;42.428;25.618;2023-01-09T12:11:47;43.70;;;17.88;;
74415;SDS011;62850;42.428;25.618;2023-01-09T12:19:42;53.58;;;19.27;;
74415;SDS011;62850;42.428;25.618;2023-01-09T12:22:32;57.15;;;20.67;;
74415;SDS011;62850;42.428;25.618;2023-01-09T12:28:19;55.95;;;21.52;;
74415;SDS011;62850;42.428;25.618;2023-01-09T12:36:18;57.15;;;19.83;;
74415;SDS011;62850;42.428;25.618;2023-01-09T12:38:54;44.00;;;19.65;;
74415;SDS011;62850;42.428;25.618;2023-01-09T12:41:46;51.00;;;20.17;;
74415;SDS011;62850;42.428;25.618;2023-01-09T12:44:38;110.35;;;30.02;;
74415;SDS011;62850;42.428;25.618;2023-01-09T12:47:25;67.90;;;24.45;;
74415;SDS011;62850;42.428;25.618;2023-01-09T12:50:09;65.65;;;24.55;;
74415;SDS011;62850;42.428;25.618;2023-01-09T12:55:26;264.27;;;65.50;;
74415;SDS011;62850;42.428;25.618;2023-01-09T12:57:57;175.65;;;44.22;;
74415;SDS011;62850;42.428;25.618;2023-01-09T13:00:31;321.67;;;73.68;;
74415;SDS011;62850;42.428;25.618;2023-01-09T13:03:09;170.07;;;42.90;;
74415;SDS011;62850;42.428;25.618;2023-01-09T13:05:48;101.63;;;30.38;;
74415;SDS011;62850;42.428;25.618;2023-01-09T13:08:20;74.88;;;25.35;;
74415;SDS011;62850;42.428;25.618;2023-01-09T13:11:00;62.65;;;22.05;;
74415;SDS011;62850;42.428;25.618;2023-01-09T13:16:12;50.08;;;20.23;;
74415;SDS011;62850;42.428;25.618;2023-01-09T13:18:46;52.45;;;20.40;;
74415;SDS011;62850;42.428;25.618;2023-01-09T13:21:16;48.15;;;19.02;;
74415;SDS011;62850;42.428;25.618;2023-01-09T13:29:30;42.00;;;16.73;;
74415;SDS011;62850;42.428;25.618;2023-01-09T13:32:12;46.72;;;18.45;;
74415;SDS011;62850;42.428;25.618;2023-01-09T13:35:00;45.88;;;18.27;;
74415;SDS011;62850;42.428;25.618;2023-01-09T13:37:30;42.88;;;17.08;;
74415;SDS011;62850;42.428;25.618;2023-01-09T13:40:06;43.28;;;18.33;;
74415;SDS011;62850;42.428;25.618;2023-01-09T13:43:05;42.80;;;17.65;;
74415;SDS011;62850;42.428;25.618;2023-01-09T13:45:34;42.33;;;17.92;;
74415;SDS011;62850;42.428;25.618;2023-01-09T13:50:38;43.47;;;18.02;;
74415;SDS011;62850;42.428;25.618;2023-01-09T13:56:03;42.70;;;16.73;;
74415;SDS011;62850;42.428;25.618;2023-01-09T13:58:30;48.28;;;17.73;;
74415;SDS011;62850;42.428;25.618;2023-01-09T14:06:37;34.90;;;14.55;;
74415;SDS011;62850;42.428;25.618;2023-01-09T14:09:09;38.72;;;15.57;;
74415;SDS011;62850;42.428;25.618;2023-01-09T14:14:27;43.88;;;17.58;;
74415;SDS011;62850;42.428;25.618;2023-01-09T14:16:57;43.15;;;16.83;;
74415;SDS011;62850;42.428;25.618;2023-01-09T14:19:33;47.60;;;18.02;;
74415;SDS011;62850;42.428;25.618;2023-01-09T14:22:01;46.33;;;18.95;;
74415;SDS011;62850;42.428;25.618;2023-01-09T14:24:30;48.83;;;19.88;;
74415;SDS011;62850;42.428;25.618;2023-01-09T14:27:03;48.85;;;20.13;;
74415;SDS011;62850;42.428;25.618;2023-01-09T14:37:34;64.22;;;21.50;;
74415;SDS011;62850;42.428;25.618;2023-01-09T14:40:01;64.57;;;23.35;;
74415;SDS011;62850;42.428;25.618;2023-01-09T14:42:29;52.60;;;20.55;;
74415;SDS011;62850;42.428;25.618;2023-01-09T14:49:57;49.35;;;20.02;;
74415;SDS011;62850;42.428;25.618;2023-01-09T14:52:38;49.17;;;19.88;;
74415;SDS011;62850;42.428;25.618;2023-01-09T14:55:54;50.90;;;19.63;;
74415;SDS011;62850;42.428;25.618;2023-01-09T15:00:35;44.97;;;18.38;;
74415;SDS011;62850;42.428;25.618;2023-01-09T15:03:01;44.10;;;18.00;;
74415;SDS011;62850;42.428;25.618;2023-01-09T15:05:27;47.78;;;19.42;;
74415;SDS011;62850;42.428;25.618;2023-01-09T15:07:56;49.08;;;19.73;;
74415;SDS011;62850;42.428;25.618;2023-01-09T15:10:29;48.35;;;18.35;;
74415;SDS011;62850;42.428;25.618;2023-01-09T15:12:57;49.20;;;18.90;;
74415;SDS011;62850;42.428;25.618;2023-01-09T15:15:25;44.83;;;18.95;;
74415;SDS011;62850;42.428;25.618;2023-01-09T15:17:55;43.65;;;18.60;;
74415;SDS011;62850;42.428;25.618;2023-01-09T15:20:27;42.55;;;18.23;;
74415;SDS011;62850;42.428;25.618;2023-01-09T15:22:54;41.70;;;18.42;;
74415;SDS011;62850;42.428;25.618;2023-01-09T15:27:57;41.67;;;18.55;;
74415;SDS011;62850;42.428;25.618;2023-01-09T15:30:26;47.33;;;19.95;;
74415;SDS011;62850;42.428;25.618;2023-01-09T15:33:00;50.90;;;22.52;;
74415;SDS011;62850;42.428;25.618;2023-01-09T15:35:29;44.70;;;20.33;;
74415;SDS011;62850;42.428;25.618;2023-01-09T15:37:54;43.42;;;20.80;;
74415;SDS011;62850;42.428;25.618;2023-01-09T15:40:26;43.65;;;19.65;;
74415;SDS011;62850;42.428;25.618;2023-01-09T15:42:57;38.63;;;17.23;;
74415;SDS011;62850;42.428;25.618;2023-01-09T15:47:50;50.42;;;21.05;;
74415;SDS011;62850;42.428;25.618;2023-01-09T15:50:17;47.95;;;20.33;;
74415;SDS011;62850;42.428;25.618;2023-01-09T15:52:47;49.85;;;20.20;;
74415;SDS011;62850;42.428;25.618;2023-01-09T15:55:15;46.60;;;20.92;;
74415;SDS011;62850;42.428;25.618;2023-01-09T15:58:00;49.97;;;19.38;;
74415;SDS011;62850;42.428;25.618;2023-01-09T16:02:54;51.58;;;21.95;;
74415;SDS011;62850;42.428;25.618;2023-01-09T16:05:39;47.20;;;18.67;;
74415;SDS011;62850;42.428;25.618;2023-01-09T16:08:13;48.90;;;20.70;;
74415;SDS011;62850;42.428;25.618;2023-01-09T16:10:47;48.75;;;21.63;;
74415;SDS011;62850;42.428;25.618;2023-01-09T16:13:14;181.98;;;52.63;;
74415;SDS011;62850;42.428;25.618;2023-01-09T16:15:41;104.43;;;34.05;;
74415;SDS011;62850;42.428;25.618;2023-01-09T16:20:40;50.72;;;19.80;;
74415;SDS011;62850;42.428;25.618;2023-01-09T16:23:18;44.25;;;20.00;;
74415;SDS011;62850;42.428;25.618;2023-01-09T16:26:03;48.95;;;21.35;;
74415;SDS011;62850;42.428;25.618;2023-01-09T16:28:31;55.17;;;21.10;;
74415;SDS011;62850;42.428;25.618;2023-01-09T16:31:15;40.08;;;19.55;;
74415;SDS011;62850;42.428;25.618;2023-01-09T16:33:49;51.67;;;21.65;;
74415;SDS011;62850;42.428;25.618;2023-01-09T16:36:21;50.85;;;22.15;;
74415;SDS011;62850;42.428;25.618;2023-01-09T16:38:46;49.00;;;22.33;;
74415;SDS011;62850;42.428;25.618;2023-01-09T16:41:13;52.97;;;19.98;;
74415;SDS011;62850;42.428;25.618;2023-01-09T16:43:58;47.53;;;19.80;;
74415;SDS011;62850;42.428;25.618;2023-01-09T16:46:24;43.72;;;19.27;;
74415;SDS011;62850;42.428;25.618;2023-01-09T16:48:50;47.20;;;19.77;;
74415;SDS011;62850;42.428;25.618;2023-01-09T16:51:19;52.97;;;22.13;;
74415;SDS011;62850;42.428;25.618;2023-01-09T16:53:47;50.90;;;22.83;;
74415;SDS011;62850;42.428;25.618;2023-01-09T16:56:15;44.75;;;19.42;;
74415;SDS011;62850;42.428;25.618;2023-01-09T16:58:43;42.88;;;19.17;;
74415;SDS011;62850;42.428;25.618;2023-01-09T17:01:10;38.15;;;17.60;;